Terminal Aerodrome Forecast
Issued by NWS

Current Version | Previous Version | Text Only | Print | Product List | Glossary Off
Versions: 1 2 3 4 5 6 7 8 9 10 11 12 13 14 15 16

198
FTUS41 KPBZ 220957 AAA
TAFHLG
TAF AMD
KHLG 220957Z 2210/2306 29008KT P6SM BKN007
     FM221200 31010KT P6SM OVC015
     FM221800 31009KT P6SM BKN035
     FM222200 28003KT P6SM FEW250=

USA.gov is the U.S. government's official web portal to all federal, state and local government web resources and services.